KYIP/YIP METAR and TAF weather

Enter ICAO airport designator
Station Type Date Time Source
KYIP METAR 2020/03/28 13:53 UTC NOAA

KYIP 281353Z 06011KT 3SM RA OVC005 08/06 A2979 RMK AO2 SLP087 P0008 T00830056


Station Type Date Time Source
KYIP Decoded METAR 2020/03/28 13:53 UTC NOAA

WILLOW RUN AIRPORT, MI, United States (KYIP) 42-14N 083-32W 215M
Mar 28, 2020 - 09:53 AM EDT / 2020.03.28 1353 UTC
Wind: from the ENE (060 degrees) at 13 MPH (11 KT):0
Visibility: 3 mile(s):0
Sky conditions: overcast
Weather: rain
Precipitation last hour: 0.08 inches
Temperature: 46.9 F (8.3 C)
Dew Point: 42.1 F (5.6 C)
Relative Humidity: 83%
Pressure (altimeter): 29.79 in. Hg (1008 hPa)
ob: KYIP 281353Z 06011KT 3SM RA OVC005 08/06 A2979 RMK AO2 SLP087 P0008 T00830056
cycle: 14

Station Type Date Time Source
KYIP TAF 2020/03/28 12:22 UTC NOAA

TAF KYIP 281120Z 2812/2912 06009KT 3SM -RA BR OVC006
FM281700 07008KT 5SM BR OVC009
FM290100 12010KT 6SM -SHRA BR OVC015 PROB30 2903/2907 3SM -TSRA BR OVC015CB
FM290800 20012KT P6SM BKN015 OVC025

Example: see airport list